createdAt,value
2022-11-18T00:00:06.656Z,991.43
2022-11-18T00:01:06.659Z,991.45
2022-11-18T00:02:06.895Z,991.46
2022-11-18T00:03:06.721Z,991.47
2022-11-18T00:04:06.644Z,991.49
2022-11-18T00:05:06.658Z,991.51
2022-11-18T00:06:06.616Z,991.53
2022-11-18T00:07:06.746Z,991.55
2022-11-18T00:08:06.662Z,991.57
2022-11-18T00:09:06.631Z,991.57
2022-11-18T00:10:06.580Z,991.58
2022-11-18T00:11:06.611Z,991.60
2022-11-18T00:12:06.613Z,991.60
2022-11-18T00:13:06.521Z,991.61
2022-11-18T00:14:06.498Z,991.61
2022-11-18T00:15:06.484Z,991.61
2022-11-18T00:16:06.496Z,991.62
2022-11-18T00:17:06.554Z,991.65
2022-11-18T00:18:06.443Z,991.67
2022-11-18T00:19:06.591Z,991.68
2022-11-18T00:20:06.452Z,991.67
2022-11-18T00:21:06.516Z,991.68
2022-11-18T00:22:06.407Z,991.68
2022-11-18T00:23:06.496Z,991.68
2022-11-18T00:24:06.456Z,991.68
2022-11-18T00:25:06.729Z,991.68
2022-11-18T00:26:06.472Z,991.67
2022-11-18T00:27:06.370Z,991.67
2022-11-18T00:28:06.388Z,991.66
2022-11-18T00:29:06.424Z,991.66
2022-11-18T00:30:06.439Z,991.66
2022-11-18T00:31:06.402Z,991.67
2022-11-18T00:32:06.343Z,991.66
2022-11-18T00:33:06.375Z,991.66
2022-11-18T00:34:06.323Z,991.66
2022-11-18T00:35:06.360Z,991.67
2022-11-18T00:36:06.333Z,991.67
2022-11-18T00:37:06.409Z,991.66
2022-11-18T00:38:06.259Z,991.67
2022-11-18T00:39:06.282Z,991.68
2022-11-18T00:40:06.220Z,991.69
2022-11-18T00:41:06.281Z,991.70
2022-11-18T00:42:06.279Z,991.71
2022-11-18T00:43:06.267Z,991.72
2022-11-18T00:44:09.435Z,991.73
2022-11-18T00:45:06.264Z,991.75
2022-11-18T00:46:06.149Z,991.77
2022-11-18T00:47:06.215Z,991.78
2022-11-18T00:48:06.160Z,991.79
2022-11-18T00:49:06.144Z,991.80
2022-11-18T00:50:06.113Z,991.81
2022-11-18T00:51:06.173Z,991.82
2022-11-18T00:52:06.226Z,991.82
2022-11-18T00:53:06.108Z,991.83
2022-11-18T00:54:06.075Z,991.81
2022-11-18T00:55:06.245Z,991.81
2022-11-18T00:56:06.552Z,991.82
2022-11-18T00:57:06.061Z,991.84
2022-11-18T00:58:06.274Z,991.84
2022-11-18T00:59:06.045Z,991.84
2022-11-18T01:00:06.040Z,991.83
2022-11-18T01:01:06.331Z,991.83
2022-11-18T01:02:06.010Z,991.82
2022-11-18T01:03:06.054Z,991.82
2022-11-18T01:04:06.101Z,991.83
2022-11-18T01:05:06.034Z,991.84
2022-11-18T01:06:05.981Z,991.85
2022-11-18T01:07:06.101Z,991.87
2022-11-18T01:08:05.974Z,991.88
2022-11-18T01:09:05.909Z,991.88
2022-11-18T01:10:05.952Z,991.88
2022-11-18T01:11:06.018Z,991.88
2022-11-18T01:12:05.909Z,991.89
2022-11-18T01:13:05.897Z,991.89
2022-11-18T01:14:05.876Z,991.91
2022-11-18T01:15:05.910Z,991.92
2022-11-18T01:16:05.849Z,991.94
2022-11-18T01:17:05.937Z,991.94
2022-11-18T01:18:05.963Z,991.96
2022-11-18T01:19:05.859Z,991.96
2022-11-18T01:20:05.839Z,991.99
2022-11-18T01:21:05.913Z,991.99
2022-11-18T01:22:05.789Z,992.00
2022-11-18T01:23:05.891Z,992.02
2022-11-18T01:24:05.810Z,992.04
2022-11-18T01:25:05.784Z,992.05
2022-11-18T01:26:05.736Z,992.07
2022-11-18T01:27:05.789Z,992.07
2022-11-18T01:28:05.791Z,992.07
2022-11-18T01:29:05.787Z,992.08
2022-11-18T01:30:05.723Z,992.08
2022-11-18T01:31:05.807Z,992.09
2022-11-18T01:33:05.716Z,992.10
2022-11-18T01:34:05.766Z,992.09
2022-11-18T01:35:05.651Z,992.09
2022-11-18T01:36:05.673Z,992.10
2022-11-18T01:37:05.681Z,992.11
2022-11-18T01:38:05.658Z,992.10
2022-11-18T01:39:05.668Z,992.10
2022-11-18T01:40:05.618Z,992.10
2022-11-18T01:41:05.704Z,992.11
2022-11-18T01:42:05.659Z,992.11
2022-11-18T01:43:05.605Z,992.12
2022-11-18T01:44:05.546Z,992.13
2022-11-18T01:45:05.580Z,992.12
2022-11-18T01:46:05.594Z,992.12
2022-11-18T01:47:05.563Z,992.11
2022-11-18T01:48:05.521Z,992.10
2022-11-18T01:49:05.566Z,992.10
2022-11-18T01:50:05.529Z,992.10
2022-11-18T01:51:05.586Z,992.10
2022-11-18T01:52:05.484Z,992.11
2022-11-18T01:53:05.592Z,992.12
2022-11-18T01:54:05.473Z,992.13
2022-11-18T01:55:05.510Z,992.14
2022-11-18T01:56:05.518Z,992.17
2022-11-18T01:57:05.592Z,992.18
2022-11-18T01:58:05.450Z,992.20
2022-11-18T01:59:05.511Z,992.21
2022-11-18T02:00:05.486Z,992.23
2022-11-18T02:01:19.232Z,992.24
2022-11-18T02:02:13.558Z,992.25
2022-11-18T02:03:08.085Z,992.26
2022-11-18T02:04:07.584Z,992.26
2022-11-18T02:05:14.300Z,992.27
2022-11-18T02:07:21.110Z,992.29
2022-11-18T02:08:22.030Z,992.31
2022-11-18T02:09:22.204Z,992.33
2022-11-18T02:10:21.976Z,992.35
2022-11-18T02:11:22.009Z,992.37
2022-11-18T02:12:21.993Z,992.39
2022-11-18T02:13:21.989Z,992.40
2022-11-18T02:14:21.949Z,992.40
2022-11-18T02:15:21.962Z,992.42
2022-11-18T02:16:21.919Z,992.43
2022-11-18T02:17:21.941Z,992.45
2022-11-18T02:18:21.910Z,992.46
2022-11-18T02:19:21.942Z,992.45
2022-11-18T02:20:21.896Z,992.46
2022-11-18T02:21:21.873Z,992.47
2022-11-18T02:22:21.856Z,992.47
2022-11-18T02:23:21.868Z,992.49
2022-11-18T02:24:21.849Z,992.50
2022-11-18T02:25:21.858Z,992.51
2022-11-18T02:26:21.850Z,992.52
2022-11-18T02:27:21.826Z,992.52
2022-11-18T02:28:21.798Z,992.56
2022-11-18T02:29:21.834Z,992.56
2022-11-18T02:30:21.795Z,992.60
2022-11-18T02:31:21.786Z,992.65
2022-11-18T02:32:21.822Z,992.64
2022-11-18T02:33:21.792Z,992.64
2022-11-18T02:34:21.778Z,992.66
2022-11-18T02:35:21.744Z,992.66
2022-11-18T02:36:21.742Z,992.67
2022-11-18T02:37:21.726Z,992.67
2022-11-18T02:38:21.714Z,992.67
2022-11-18T02:39:21.718Z,992.66
2022-11-18T02:40:21.712Z,992.66
2022-11-18T02:41:21.666Z,992.66
2022-11-18T02:42:21.693Z,992.67
2022-11-18T02:43:21.656Z,992.68
2022-11-18T02:44:21.671Z,992.68
2022-11-18T02:45:21.634Z,992.69
2022-11-18T02:46:21.630Z,992.70
2022-11-18T02:47:21.647Z,992.69
2022-11-18T02:48:21.615Z,992.69
2022-11-18T02:49:21.607Z,992.69
2022-11-18T02:50:21.591Z,992.69
2022-11-18T02:51:21.604Z,992.70
2022-11-18T02:52:21.555Z,992.70
2022-11-18T02:53:21.583Z,992.70
2022-11-18T02:54:21.546Z,992.70
2022-11-18T02:55:21.560Z,992.69
2022-11-18T02:56:21.548Z,992.69
2022-11-18T02:57:21.530Z,992.69
2022-11-18T02:58:21.486Z,992.70
2022-11-18T02:59:21.536Z,992.69
2022-11-18T03:00:21.484Z,992.70
2022-11-18T03:01:21.557Z,992.70
2022-11-18T03:02:21.448Z,992.70
2022-11-18T03:03:21.504Z,992.70
2022-11-18T03:04:21.477Z,992.70
2022-11-18T03:05:21.456Z,992.71
2022-11-18T03:06:21.420Z,992.72
2022-11-18T03:07:21.560Z,992.73
2022-11-18T03:08:21.391Z,992.73
2022-11-18T03:09:21.430Z,992.74
2022-11-18T03:10:21.405Z,992.75
2022-11-18T03:11:21.367Z,992.76
2022-11-18T03:12:21.368Z,992.78
2022-11-18T03:13:21.357Z,992.80
2022-11-18T03:14:21.370Z,992.82
2022-11-18T03:15:21.375Z,992.83
2022-11-18T03:16:21.310Z,992.84
2022-11-18T03:17:21.360Z,992.86
2022-11-18T03:18:21.327Z,992.88
2022-11-18T03:19:21.308Z,992.88
2022-11-18T03:20:21.288Z,992.88
2022-11-18T03:21:21.282Z,992.90
2022-11-18T03:22:21.314Z,992.91
2022-11-18T03:23:21.273Z,992.93
2022-11-18T03:24:21.256Z,992.97
2022-11-18T03:25:21.230Z,992.99
2022-11-18T03:26:21.232Z,993.01
2022-11-18T03:27:21.231Z,993.01
2022-11-18T03:28:21.229Z,993.04
2022-11-18T03:29:21.184Z,993.06
2022-11-18T03:30:21.168Z,993.07
2022-11-18T03:31:21.170Z,993.06
2022-11-18T03:32:21.158Z,993.06
2022-11-18T03:33:21.159Z,993.06
2022-11-18T03:34:21.154Z,993.04
2022-11-18T03:35:21.148Z,993.05
2022-11-18T03:36:21.107Z,993.06
2022-11-18T03:37:21.129Z,993.09
2022-11-18T03:38:21.129Z,993.11
2022-11-18T03:39:21.149Z,993.12
2022-11-18T03:40:21.112Z,993.11
2022-11-18T03:41:21.061Z,993.12
2022-11-18T03:42:21.096Z,993.14
2022-11-18T03:43:21.047Z,993.17
2022-11-18T03:44:21.037Z,993.17
2022-11-18T03:45:21.079Z,993.19
2022-11-18T03:46:21.029Z,993.22
2022-11-18T03:47:21.017Z,993.23
2022-11-18T03:48:21.001Z,993.23
2022-11-18T03:49:21.072Z,993.25
2022-11-18T03:50:20.989Z,993.26
2022-11-18T03:51:20.981Z,993.27
2022-11-18T03:52:20.950Z,993.28
2022-11-18T03:53:20.931Z,993.28
2022-11-18T03:54:20.932Z,993.29
2022-11-18T03:55:20.959Z,993.30
2022-11-18T03:56:20.950Z,993.31
2022-11-18T03:57:20.921Z,993.33
2022-11-18T03:58:20.912Z,993.34
2022-11-18T03:59:20.893Z,993.36
2022-11-18T04:00:20.891Z,993.36
2022-11-18T04:01:20.903Z,993.37
2022-11-18T04:02:20.897Z,993.37
2022-11-18T04:03:20.863Z,993.38
2022-11-18T04:04:20.870Z,993.40
2022-11-18T04:05:20.821Z,993.41
2022-11-18T04:06:20.825Z,993.42
2022-11-18T04:07:20.906Z,993.41
2022-11-18T04:08:20.844Z,993.42
2022-11-18T04:09:20.809Z,993.41
2022-11-18T04:10:20.790Z,993.41
2022-11-18T04:11:20.745Z,993.42
2022-11-18T04:12:20.785Z,993.44
2022-11-18T04:13:20.744Z,993.48
2022-11-18T04:14:20.766Z,993.52
2022-11-18T04:15:20.729Z,993.53
2022-11-18T04:16:20.757Z,993.55
2022-11-18T04:17:20.723Z,993.57
2022-11-18T04:18:20.748Z,993.58
2022-11-18T04:19:20.884Z,993.58
2022-11-18T04:20:20.693Z,993.58
2022-11-18T04:21:20.672Z,993.58
2022-11-18T04:22:20.662Z,993.58
2022-11-18T04:23:20.638Z,993.59
2022-11-18T04:24:20.639Z,993.60
2022-11-18T04:25:20.659Z,993.61
2022-11-18T04:26:20.641Z,993.63
2022-11-18T04:27:20.608Z,993.65
2022-11-18T04:28:20.610Z,993.66
2022-11-18T04:29:20.732Z,993.63
2022-11-18T04:30:20.603Z,993.61
2022-11-18T04:31:20.614Z,993.59
2022-11-18T04:32:20.577Z,993.59
2022-11-18T04:33:20.559Z,993.60
2022-11-18T04:34:20.546Z,993.61
2022-11-18T04:35:20.515Z,993.63
2022-11-18T04:36:20.526Z,993.64
2022-11-18T04:37:20.519Z,993.64
2022-11-18T04:38:22.122Z,993.67
2022-11-18T04:39:20.657Z,993.67
2022-11-18T04:40:20.496Z,993.67
2022-11-18T04:41:20.448Z,993.67
2022-11-18T04:42:20.461Z,993.68
2022-11-18T04:43:20.475Z,993.70
2022-11-18T04:44:20.499Z,993.71
2022-11-18T04:45:20.430Z,993.72
2022-11-18T04:46:20.430Z,993.73
2022-11-18T04:47:20.399Z,993.75
2022-11-18T04:48:20.428Z,993.75
2022-11-18T04:49:20.670Z,993.76
2022-11-18T04:50:20.423Z,993.76
2022-11-18T04:51:20.429Z,993.76
2022-11-18T04:52:20.352Z,993.77
2022-11-18T04:53:20.322Z,993.79
2022-11-18T04:54:20.342Z,993.80
2022-11-18T04:55:20.348Z,993.81
2022-11-18T04:56:20.312Z,993.81
2022-11-18T04:57:20.295Z,993.81
2022-11-18T04:58:20.319Z,993.81
2022-11-18T04:59:20.864Z,993.81
2022-11-18T05:00:20.282Z,993.81
2022-11-18T05:01:20.418Z,993.81
2022-11-18T05:02:20.271Z,993.82
2022-11-18T05:03:20.296Z,993.82
2022-11-18T05:04:20.257Z,993.83
2022-11-18T05:05:20.234Z,993.84
2022-11-18T05:06:20.236Z,993.85
2022-11-18T05:07:20.281Z,993.85
2022-11-18T05:08:20.225Z,993.85
2022-11-18T05:09:20.564Z,993.85
2022-11-18T05:10:20.180Z,993.85
2022-11-18T05:11:20.189Z,993.86
2022-11-18T05:12:20.163Z,993.87
2022-11-18T05:13:20.135Z,993.86
2022-11-18T05:14:20.165Z,993.87
2022-11-18T05:15:20.098Z,993.87
2022-11-18T05:16:20.172Z,993.88
2022-11-18T05:17:20.161Z,993.88
2022-11-18T05:18:20.110Z,993.89
2022-11-18T05:19:20.500Z,993.90
2022-11-18T05:20:20.137Z,993.92
2022-11-18T05:21:20.077Z,993.94
2022-11-18T05:22:20.073Z,993.96
2022-11-18T05:23:20.041Z,993.98
2022-11-18T05:24:20.100Z,993.99
2022-11-18T05:25:20.022Z,994.01
2022-11-18T05:26:20.051Z,994.02
2022-11-18T05:27:20.054Z,994.04
2022-11-18T05:28:19.981Z,994.05
2022-11-18T05:29:20.227Z,994.07
2022-11-18T05:30:19.983Z,994.09
2022-11-18T05:31:19.992Z,994.10
2022-11-18T05:32:19.967Z,994.11
2022-11-18T05:33:19.932Z,994.12
2022-11-18T05:34:19.945Z,994.14
2022-11-18T05:35:19.926Z,994.15
2022-11-18T05:36:19.926Z,994.17
2022-11-18T05:37:19.899Z,994.18
2022-11-18T05:38:19.923Z,994.19
2022-11-18T05:39:20.234Z,994.21
2022-11-18T05:40:19.893Z,994.22
2022-11-18T05:41:19.871Z,994.24
2022-11-18T05:42:19.847Z,994.25
2022-11-18T05:43:19.858Z,994.27
2022-11-18T05:44:19.830Z,994.28
2022-11-18T05:45:19.816Z,994.29
2022-11-18T05:46:19.815Z,994.30
2022-11-18T05:47:20.042Z,994.32
2022-11-18T05:48:19.838Z,994.33
2022-11-18T05:49:20.222Z,994.34
2022-11-18T05:50:21.438Z,994.35
2022-11-18T05:51:19.742Z,994.37
2022-11-18T05:52:19.768Z,994.38
2022-11-18T05:53:19.784Z,994.38
2022-11-18T05:54:19.763Z,994.40
2022-11-18T05:55:19.694Z,994.41
2022-11-18T05:56:19.738Z,994.41
2022-11-18T05:57:19.707Z,994.41
2022-11-18T05:58:19.702Z,994.41
2022-11-18T05:59:20.156Z,994.41
2022-11-18T06:00:19.719Z,994.41
2022-11-18T06:01:19.649Z,994.42
2022-11-18T06:02:19.721Z,994.45
2022-11-18T06:03:19.747Z,994.46
2022-11-18T06:04:19.636Z,994.48
2022-11-18T06:05:19.609Z,994.49
2022-11-18T06:06:19.622Z,994.51
2022-11-18T06:07:19.702Z,994.52
2022-11-18T06:08:19.605Z,994.54
2022-11-18T06:09:19.842Z,994.55
2022-11-18T06:10:19.548Z,994.56
2022-11-18T06:11:19.558Z,994.58
2022-11-18T06:12:19.554Z,994.59
2022-11-18T06:13:19.520Z,994.60
2022-11-18T06:14:19.528Z,994.62
2022-11-18T06:15:19.579Z,994.63
2022-11-18T06:16:19.546Z,994.64
2022-11-18T06:17:19.473Z,994.66
2022-11-18T06:18:19.482Z,994.68
2022-11-18T06:19:19.844Z,994.69
2022-11-18T06:20:19.477Z,994.71
2022-11-18T06:21:19.440Z,994.73
2022-11-18T06:22:19.463Z,994.75
2022-11-18T06:23:19.445Z,994.76
2022-11-18T06:24:19.406Z,994.78
2022-11-18T06:25:19.416Z,994.79
2022-11-18T06:26:19.379Z,994.80
2022-11-18T06:27:19.324Z,994.82
2022-11-18T06:28:19.377Z,994.82
2022-11-18T06:29:26.000Z,994.84
2022-11-18T06:30:19.323Z,994.85
2022-11-18T06:31:19.322Z,994.85
2022-11-18T06:32:19.343Z,994.87
2022-11-18T06:33:19.308Z,994.87
2022-11-18T06:34:19.249Z,994.88
2022-11-18T06:35:19.318Z,994.89
2022-11-18T06:36:19.284Z,994.91
2022-11-18T06:37:19.248Z,994.91
2022-11-18T06:38:19.270Z,994.92
2022-11-18T06:39:19.740Z,994.95
2022-11-18T06:40:19.202Z,994.95
2022-11-18T06:41:19.254Z,994.97
2022-11-18T06:42:19.257Z,994.97
2022-11-18T06:43:19.159Z,994.98
2022-11-18T06:44:19.168Z,994.98
2022-11-18T06:45:19.283Z,995.00
2022-11-18T06:46:19.160Z,995.01
2022-11-18T06:47:19.123Z,995.02
2022-11-18T06:48:19.159Z,995.04
2022-11-18T06:49:19.359Z,995.06
2022-11-18T06:50:19.090Z,995.07
2022-11-18T06:51:19.096Z,995.07
2022-11-18T06:52:19.105Z,995.09
2022-11-18T06:53:19.071Z,995.10
2022-11-18T06:54:19.074Z,995.13
2022-11-18T06:55:19.096Z,995.15
2022-11-18T06:56:19.036Z,995.18
2022-11-18T06:57:19.033Z,995.20
2022-11-18T06:58:19.011Z,995.22
2022-11-18T06:59:19.183Z,995.24
2022-11-18T07:00:18.998Z,995.26
2022-11-18T07:01:19.014Z,995.28
2022-11-18T07:02:18.975Z,995.30
2022-11-18T07:03:18.949Z,995.31
2022-11-18T07:04:19.017Z,995.34
2022-11-18T07:05:18.954Z,995.35
2022-11-18T07:06:18.911Z,995.37
2022-11-18T07:07:18.931Z,995.40
2022-11-18T07:08:18.989Z,995.43
2022-11-18T07:09:19.180Z,995.46
2022-11-18T07:10:18.885Z,995.47
2022-11-18T07:11:18.855Z,995.49
2022-11-18T07:12:18.865Z,995.51
2022-11-18T07:13:18.824Z,995.52
2022-11-18T07:14:18.853Z,995.54
2022-11-18T07:15:18.877Z,995.55
2022-11-18T07:16:18.834Z,995.56
2022-11-18T07:17:18.799Z,995.57
2022-11-18T07:18:18.849Z,995.58
2022-11-18T07:19:19.088Z,995.60
2022-11-18T07:20:18.798Z,995.62
2022-11-18T07:21:18.788Z,995.64
2022-11-18T07:22:18.751Z,995.65
2022-11-18T07:23:18.727Z,995.67
2022-11-18T07:24:18.745Z,995.68
2022-11-18T07:25:18.751Z,995.68
2022-11-18T07:26:18.721Z,995.69
2022-11-18T07:27:18.692Z,995.70
2022-11-18T07:28:18.721Z,995.71
2022-11-18T07:29:19.066Z,995.72
2022-11-18T07:30:18.692Z,995.73
2022-11-18T07:31:18.701Z,995.73
2022-11-18T07:32:18.667Z,995.73
2022-11-18T07:33:18.640Z,995.73
2022-11-18T07:34:18.638Z,995.74
2022-11-18T07:35:18.631Z,995.75
2022-11-18T07:36:18.600Z,995.76
2022-11-18T07:37:18.585Z,995.76
2022-11-18T07:38:18.597Z,995.77
2022-11-18T07:39:18.836Z,995.77
2022-11-18T07:40:18.613Z,995.78
2022-11-18T07:41:18.633Z,995.79
2022-11-18T07:42:18.546Z,995.80
2022-11-18T07:43:18.512Z,995.81
2022-11-18T07:44:18.543Z,995.83
2022-11-18T07:45:18.564Z,995.84
2022-11-18T07:46:18.529Z,995.85
2022-11-18T07:47:18.533Z,995.87
2022-11-18T07:48:18.471Z,995.87
2022-11-18T07:49:18.912Z,995.88
2022-11-18T07:50:18.455Z,995.89
2022-11-18T07:51:18.459Z,995.92
2022-11-18T07:52:18.486Z,995.93
2022-11-18T07:53:18.447Z,995.94
2022-11-18T07:54:18.424Z,995.96
2022-11-18T07:55:18.448Z,995.98
2022-11-18T07:56:18.398Z,996.00
2022-11-18T07:57:18.386Z,996.01
2022-11-18T07:58:18.398Z,996.02
2022-11-18T07:59:18.544Z,996.03
2022-11-18T08:00:18.350Z,996.05
2022-11-18T08:01:18.440Z,996.07
2022-11-18T08:02:18.317Z,996.09
2022-11-18T08:03:18.367Z,996.10
2022-11-18T08:04:18.355Z,996.10
2022-11-18T08:05:18.618Z,996.12
2022-11-18T08:06:18.321Z,996.14
2022-11-18T08:07:18.389Z,996.14
2022-11-18T08:08:18.275Z,996.15
2022-11-18T08:09:18.717Z,996.16
2022-11-18T08:10:18.254Z,996.17
2022-11-18T08:11:22.398Z,996.18
2022-11-18T08:12:18.263Z,996.19
2022-11-18T08:13:18.218Z,996.20
2022-11-18T08:14:18.235Z,996.21
2022-11-18T08:15:18.195Z,996.22
2022-11-18T08:16:18.208Z,996.22
2022-11-18T08:17:18.183Z,996.23
2022-11-18T08:18:18.178Z,996.24
2022-11-18T08:19:18.353Z,996.25
2022-11-18T08:20:18.144Z,996.26
2022-11-18T08:21:18.146Z,996.28
2022-11-18T08:22:18.110Z,996.29
2022-11-18T08:23:18.129Z,996.30
2022-11-18T08:24:18.108Z,996.30
2022-11-18T08:25:18.089Z,996.32
2022-11-18T08:26:18.058Z,996.33
2022-11-18T08:27:18.118Z,996.34
2022-11-18T08:28:18.118Z,996.36
2022-11-18T08:29:23.557Z,996.36
2022-11-18T08:30:18.029Z,996.38
2022-11-18T08:31:18.042Z,996.39
2022-11-18T08:32:17.995Z,996.41
2022-11-18T08:33:18.032Z,996.42
2022-11-18T08:34:17.997Z,996.43
2022-11-18T08:35:17.971Z,996.44
2022-11-18T08:36:17.989Z,996.44
2022-11-18T08:37:17.964Z,996.45
2022-11-18T08:38:17.977Z,996.46
2022-11-18T08:39:18.217Z,996.46
2022-11-18T08:40:17.962Z,996.47
2022-11-18T08:41:17.917Z,996.48
2022-11-18T08:42:17.890Z,996.49
2022-11-18T08:43:17.928Z,996.49
2022-11-18T08:44:17.852Z,996.50
2022-11-18T08:45:17.879Z,996.50
2022-11-18T08:46:17.903Z,996.51
2022-11-18T08:47:17.832Z,996.52
2022-11-18T08:48:17.821Z,996.53
2022-11-18T08:49:18.183Z,996.54
2022-11-18T08:50:17.791Z,996.54
2022-11-18T08:51:17.795Z,996.55
2022-11-18T08:52:17.826Z,996.56
2022-11-18T08:53:17.820Z,996.56
2022-11-18T08:54:17.775Z,996.57
2022-11-18T08:55:17.755Z,996.57
2022-11-18T08:56:17.768Z,996.58
2022-11-18T08:57:17.763Z,996.59
2022-11-18T08:58:17.708Z,996.60
2022-11-18T08:59:18.007Z,996.61
2022-11-18T09:00:17.708Z,996.61
2022-11-18T09:01:17.771Z,996.63
2022-11-18T09:02:17.688Z,996.64
2022-11-18T09:03:17.672Z,996.66
2022-11-18T09:04:17.640Z,996.67
2022-11-18T09:05:17.637Z,996.68
2022-11-18T09:06:17.648Z,996.68
2022-11-18T09:07:17.739Z,996.70
2022-11-18T09:08:17.631Z,996.71
2022-11-18T09:09:17.635Z,996.72
2022-11-18T09:10:17.586Z,996.73
2022-11-18T09:11:17.578Z,996.74
2022-11-18T09:12:17.745Z,996.73
2022-11-18T09:13:44.886Z,996.74
2022-11-18T09:15:17.890Z,996.74
2022-11-18T09:16:17.592Z,996.75
2022-11-18T09:17:17.527Z,996.75
2022-11-18T09:18:17.515Z,996.75
2022-11-18T09:19:45.646Z,996.76
2022-11-18T09:20:17.530Z,996.76
2022-11-18T09:21:17.489Z,996.77
2022-11-18T09:22:17.483Z,996.78
2022-11-18T09:23:17.464Z,996.79
2022-11-18T09:24:17.742Z,996.80
2022-11-18T09:25:17.490Z,996.81
2022-11-18T09:26:17.399Z,996.83
2022-11-18T09:27:18.105Z,996.84
2022-11-18T09:28:17.430Z,996.86
2022-11-18T09:29:17.390Z,996.87
2022-11-18T09:30:17.400Z,996.88
2022-11-18T09:31:17.369Z,996.89
2022-11-18T09:32:17.362Z,996.91
2022-11-18T09:33:20.550Z,996.92
2022-11-18T09:34:17.756Z,996.93
2022-11-18T09:35:17.346Z,996.94
2022-11-18T09:36:17.338Z,996.95
2022-11-18T09:37:17.305Z,996.97
2022-11-18T09:38:17.283Z,997.00
2022-11-18T09:39:17.482Z,997.03
2022-11-18T09:40:17.276Z,997.06
2022-11-18T09:41:17.274Z,997.07
2022-11-18T09:42:17.274Z,997.09
2022-11-18T09:43:17.232Z,997.11
2022-11-18T09:44:17.246Z,997.12
2022-11-18T09:45:23.577Z,997.14
2022-11-18T09:46:17.201Z,997.16
2022-11-18T09:47:17.187Z,997.17
2022-11-18T09:48:17.289Z,997.19
2022-11-18T09:49:17.564Z,997.19
2022-11-18T09:51:17.186Z,997.22
2022-11-18T09:52:17.160Z,997.23
2022-11-18T09:53:17.123Z,997.25
2022-11-18T09:54:17.534Z,997.26
2022-11-18T09:55:17.120Z,997.28
2022-11-18T09:56:17.145Z,997.30
2022-11-18T09:57:17.097Z,997.32
2022-11-18T09:58:17.098Z,997.33
2022-11-18T09:59:17.071Z,997.34
2022-11-18T10:00:17.057Z,997.35
2022-11-18T10:01:17.097Z,997.36
2022-11-18T10:02:17.099Z,997.37
2022-11-18T10:03:17.018Z,997.38
2022-11-18T10:04:17.233Z,997.39
2022-11-18T10:05:17.028Z,997.39
2022-11-18T10:06:22.007Z,997.40
2022-11-18T10:07:17.056Z,997.41
2022-11-18T10:08:16.956Z,997.41
2022-11-18T10:09:16.975Z,997.42
2022-11-18T10:10:16.932Z,997.43
2022-11-18T10:11:16.940Z,997.44
2022-11-18T10:12:16.918Z,997.44
2022-11-18T10:13:16.950Z,997.44
2022-11-18T10:14:17.325Z,997.44
2022-11-18T10:15:16.910Z,997.44
2022-11-18T10:16:16.878Z,997.44
2022-11-18T10:17:16.906Z,997.45
2022-11-18T10:18:37.860Z,997.46
2022-11-18T10:19:16.858Z,997.47
2022-11-18T10:20:16.823Z,997.48
2022-11-18T10:21:16.878Z,997.47
2022-11-18T10:22:22.675Z,997.48
2022-11-18T10:23:16.828Z,997.47
2022-11-18T10:24:17.157Z,997.48
2022-11-18T10:25:16.787Z,997.48
2022-11-18T10:26:16.772Z,997.49
2022-11-18T10:27:16.785Z,997.49
2022-11-18T10:28:16.813Z,997.49
2022-11-18T10:29:16.781Z,997.50
2022-11-18T10:30:16.733Z,997.50
2022-11-18T10:31:16.709Z,997.51
2022-11-18T10:32:16.689Z,997.51
2022-11-18T10:33:16.718Z,997.51
2022-11-18T10:34:17.004Z,997.50
2022-11-18T10:35:16.690Z,997.50
2022-11-18T10:36:16.666Z,997.51
2022-11-18T10:37:16.665Z,997.52
2022-11-18T10:38:16.654Z,997.53
2022-11-18T10:39:16.641Z,997.54
2022-11-18T10:40:16.621Z,997.55
2022-11-18T10:41:16.672Z,997.56
2022-11-18T10:42:16.599Z,997.57
2022-11-18T10:43:16.594Z,997.57
2022-11-18T10:44:16.823Z,997.58
2022-11-18T10:45:16.563Z,997.59
2022-11-18T10:46:16.581Z,997.61
2022-11-18T10:47:16.595Z,997.62
2022-11-18T10:48:16.516Z,997.63
2022-11-18T10:49:16.518Z,997.64
2022-11-18T10:50:16.531Z,997.64
2022-11-18T10:51:16.554Z,997.64
2022-11-18T10:52:16.502Z,997.63
2022-11-18T10:53:16.475Z,997.65
2022-11-18T10:54:16.738Z,997.65
2022-11-18T10:55:16.514Z,997.64
2022-11-18T10:56:16.456Z,997.64
2022-11-18T10:57:16.458Z,997.63
2022-11-18T10:58:16.598Z,997.64
2022-11-18T10:59:16.449Z,997.64
2022-11-18T11:00:16.409Z,997.64
2022-11-18T11:01:16.532Z,997.62
2022-11-18T11:02:16.486Z,997.61
2022-11-18T11:03:16.376Z,997.59
2022-11-18T11:04:16.720Z,997.59
2022-11-18T11:05:16.355Z,997.58
2022-11-18T11:06:16.338Z,997.57
2022-11-18T11:07:16.463Z,997.57
2022-11-18T11:08:35.880Z,997.57
2022-11-18T11:09:16.315Z,997.57
2022-11-18T11:10:16.341Z,997.58
2022-11-18T11:11:16.321Z,997.59
2022-11-18T11:12:16.273Z,997.59
2022-11-18T11:13:16.303Z,997.60
2022-11-18T11:14:16.944Z,997.60
2022-11-18T11:15:16.245Z,997.61
2022-11-18T11:16:16.237Z,997.62
2022-11-18T11:17:16.295Z,997.62
2022-11-18T11:18:16.236Z,997.64
2022-11-18T11:19:16.217Z,997.65
2022-11-18T11:20:16.218Z,997.66
2022-11-18T11:21:16.217Z,997.67
2022-11-18T11:22:16.175Z,997.67
2022-11-18T11:23:22.119Z,997.67
2022-11-18T11:24:16.588Z,997.68
2022-11-18T11:25:16.221Z,997.68
2022-11-18T11:28:16.891Z,997.68
2022-11-18T11:29:16.545Z,997.68
2022-11-18T11:30:16.183Z,997.69
2022-11-18T11:31:16.146Z,997.69
2022-11-18T11:32:16.077Z,997.69
2022-11-18T11:33:16.108Z,997.70
2022-11-18T11:34:16.100Z,997.70
2022-11-18T11:35:16.030Z,997.69
2022-11-18T11:36:16.028Z,997.69
2022-11-18T11:37:16.084Z,997.69
2022-11-18T11:38:16.037Z,997.70
2022-11-18T11:39:16.025Z,997.71
2022-11-18T11:40:16.121Z,997.72
2022-11-18T11:41:15.985Z,997.73
2022-11-18T11:42:16.002Z,997.74
2022-11-18T11:43:15.995Z,997.74
2022-11-18T11:44:15.944Z,997.75
2022-11-18T11:45:15.945Z,997.75
2022-11-18T11:46:15.945Z,997.76
2022-11-18T11:47:15.948Z,997.77
2022-11-18T11:48:15.885Z,997.78
2022-11-18T11:49:16.319Z,997.78
2022-11-18T11:50:15.889Z,997.80
2022-11-18T11:51:15.898Z,997.81
2022-11-18T11:52:15.852Z,997.83
2022-11-18T11:53:15.908Z,997.84
2022-11-18T11:54:15.927Z,997.85
2022-11-18T11:55:15.889Z,997.86
2022-11-18T11:56:21.136Z,997.88
2022-11-18T11:57:15.828Z,997.89
2022-11-18T11:58:15.823Z,997.91
2022-11-18T11:59:16.149Z,997.93
2022-11-18T12:00:15.782Z,997.94
2022-11-18T12:01:15.796Z,997.95
2022-11-18T12:02:15.757Z,997.95
2022-11-18T12:03:15.893Z,997.96
2022-11-18T12:04:15.741Z,997.96
2022-11-18T12:05:15.749Z,997.97
2022-11-18T12:06:15.726Z,997.98
2022-11-18T12:07:15.745Z,997.98
2022-11-18T12:08:15.676Z,997.99
2022-11-18T12:09:15.866Z,997.99
2022-11-18T12:10:15.690Z,997.99
2022-11-18T12:11:15.674Z,997.99
2022-11-18T12:12:15.669Z,997.98
2022-11-18T12:13:15.651Z,997.99
2022-11-18T12:14:15.638Z,997.99
2022-11-18T12:15:15.648Z,997.98
2022-11-18T12:16:15.636Z,997.98
2022-11-18T12:17:15.650Z,997.97
2022-11-18T12:18:15.614Z,997.98
2022-11-18T12:19:15.767Z,997.98
2022-11-18T12:20:15.613Z,997.99
2022-11-18T12:21:15.550Z,998.00
2022-11-18T12:22:15.546Z,998.02
2022-11-18T12:23:15.582Z,998.03
2022-11-18T12:24:15.530Z,998.04
2022-11-18T12:25:15.510Z,998.05
2022-11-18T12:26:15.545Z,998.05
2022-11-18T12:27:15.494Z,998.06
2022-11-18T12:28:15.475Z,998.06
2022-11-18T12:29:15.688Z,998.06
2022-11-18T12:30:15.459Z,998.06
2022-11-18T12:31:15.446Z,998.05
2022-11-18T12:32:15.423Z,998.05
2022-11-18T12:33:15.484Z,998.05
2022-11-18T12:34:15.432Z,998.06